createdAt,value
2022-09-17T00:00:14.161Z,5.07
2022-09-17T00:00:47.775Z,5.57
2022-09-17T00:01:22.373Z,5.10
2022-09-17T00:01:54.272Z,4.95
2022-09-17T00:02:27.382Z,5.28
2022-09-17T00:02:59.204Z,5.45
2022-09-17T00:03:33.731Z,5.05
2022-09-17T00:04:06.610Z,4.78
2022-09-17T00:04:38.398Z,5.60
2022-09-17T00:05:10.473Z,5.00
2022-09-17T00:05:42.752Z,4.45
2022-09-17T00:06:15.476Z,5.35
2022-09-17T00:06:47.259Z,4.68
2022-09-17T00:07:19.149Z,4.95
2022-09-17T00:07:52.862Z,4.40
2022-09-17T00:08:24.625Z,4.18
2022-09-17T00:08:56.700Z,5.25
2022-09-17T00:09:29.442Z,4.80
2022-09-17T00:10:01.237Z,4.50
2022-09-17T00:10:38.386Z,4.80
2022-09-17T00:11:13.754Z,4.63
2022-09-17T00:11:45.520Z,4.45
2022-09-17T00:12:18.297Z,4.53
2022-09-17T00:12:50.749Z,4.65
2022-09-17T00:13:22.952Z,5.38
2022-09-17T00:13:56.399Z,4.38
2022-09-17T00:14:28.148Z,4.20
2022-09-17T00:15:00.074Z,5.03
2022-09-17T00:15:33.044Z,4.30
2022-09-17T00:16:05.548Z,4.68
2022-09-17T00:16:39.937Z,4.45
2022-09-17T00:17:12.706Z,4.97
2022-09-17T00:17:44.488Z,4.47
2022-09-17T00:18:16.549Z,4.55
2022-09-17T00:18:49.291Z,3.90
2022-09-17T00:19:22.872Z,4.25
2022-09-17T00:19:55.701Z,3.58
2022-09-17T00:20:27.920Z,3.38
2022-09-17T00:20:59.818Z,4.03
2022-09-17T00:21:32.588Z,3.45
2022-09-17T00:22:04.394Z,3.95
2022-09-17T00:22:36.244Z,4.07
2022-09-17T00:23:08.518Z,3.70
2022-09-17T00:23:41.277Z,4.03
2022-09-17T00:24:14.757Z,3.40
2022-09-17T00:24:47.533Z,3.63
2022-09-17T00:25:20.068Z,4.15
2022-09-17T00:25:53.252Z,3.45
2022-09-17T00:26:26.508Z,3.95
2022-09-17T00:26:58.597Z,4.22
2022-09-17T00:27:30.378Z,3.53
2022-09-17T00:28:03.345Z,4.30
2022-09-17T00:28:35.377Z,3.45
2022-09-17T00:29:07.330Z,3.80
2022-09-17T00:29:40.072Z,3.80
2022-09-17T00:30:13.441Z,3.83
2022-09-17T00:30:46.018Z,3.80
2022-09-17T00:31:19.357Z,3.88
2022-09-17T00:31:51.308Z,3.55
2022-09-17T00:32:23.565Z,4.15
2022-09-17T00:32:57.731Z,3.30
2022-09-17T00:33:30.486Z,3.70
2022-09-17T00:34:04.128Z,3.95
2022-09-17T00:34:37.101Z,4.15
2022-09-17T00:35:09.162Z,3.70
2022-09-17T00:35:40.989Z,3.70
2022-09-17T00:36:13.772Z,3.60
2022-09-17T00:36:45.565Z,3.42
2022-09-17T00:37:17.434Z,3.38
2022-09-17T00:37:50.161Z,3.47
2022-09-17T00:38:21.925Z,3.17
2022-09-17T00:38:56.562Z,2.97
2022-09-17T00:39:29.298Z,3.05
2022-09-17T00:40:01.271Z,3.40
2022-09-17T00:40:33.304Z,2.92
2022-09-17T00:41:09.348Z,3.78
2022-09-17T00:41:41.341Z,2.90
2022-09-17T00:42:15.433Z,3.80
2022-09-17T00:42:47.539Z,2.80
2022-09-17T00:43:37.787Z,2.92
2022-09-17T00:44:40.499Z,3.63
2022-09-17T00:45:12.962Z,3.13
2022-09-17T00:45:44.857Z,3.53
2022-09-17T00:46:30.542Z,3.47
2022-09-17T00:47:02.460Z,2.85
2022-09-17T00:47:37.189Z,3.22
2022-09-17T00:48:12.474Z,3.00
2022-09-17T00:48:45.088Z,2.85
2022-09-17T00:49:20.429Z,2.20
2022-09-17T00:49:56.117Z,2.72
2022-09-17T00:50:32.046Z,2.63
2022-09-17T00:51:09.048Z,2.88
2022-09-17T00:51:49.583Z,2.10
2022-09-17T00:52:26.979Z,2.40
2022-09-17T00:53:01.753Z,2.63
2022-09-17T00:53:33.592Z,2.92
2022-09-17T00:54:09.439Z,2.20
2022-09-17T00:54:45.424Z,2.80
2022-09-17T00:55:22.848Z,2.42
2022-09-17T00:56:00.034Z,2.50
2022-09-17T00:56:35.459Z,3.03
2022-09-17T00:57:07.593Z,3.15
2022-09-17T00:57:41.481Z,2.70
2022-09-17T00:58:16.862Z,2.78
2022-09-17T00:58:50.242Z,2.80
2022-09-17T00:59:23.313Z,3.72
2022-09-17T00:59:55.696Z,2.88
2022-09-17T01:00:29.046Z,7.60
2022-09-17T01:01:01.925Z,5.80
2022-09-17T01:01:33.962Z,4.88
2022-09-17T01:02:06.214Z,3.38
2022-09-17T01:02:39.327Z,3.00
2022-09-17T01:03:11.168Z,2.78
2022-09-17T01:03:42.956Z,2.97
2022-09-17T01:04:17.941Z,2.75
2022-09-17T01:04:51.114Z,2.88
2022-09-17T01:05:33.379Z,2.60
2022-09-17T01:06:13.549Z,3.15
2022-09-17T01:06:54.310Z,2.78
2022-09-17T01:07:44.478Z,2.58
2022-09-17T01:08:23.899Z,2.75
2022-09-17T01:09:26.054Z,2.40
2022-09-17T01:10:01.923Z,2.58
2022-09-17T01:10:50.287Z,2.78
2022-09-17T01:11:36.791Z,3.40
2022-09-17T01:12:27.472Z,4.85
2022-09-17T01:13:11.430Z,4.65
2022-09-17T01:13:57.880Z,5.53
2022-09-17T01:14:44.502Z,2.40
2022-09-17T01:15:25.580Z,2.50
2022-09-17T01:16:05.004Z,2.50
2022-09-17T01:16:47.157Z,3.13
2022-09-17T01:17:28.178Z,2.22
2022-09-17T01:18:14.433Z,2.17
2022-09-17T01:18:58.525Z,2.20
2022-09-17T01:20:00.499Z,2.17
2022-09-17T01:21:16.343Z,2.35
2022-09-17T01:21:57.267Z,1.67
2022-09-17T01:22:38.226Z,2.17
2022-09-17T01:23:36.776Z,2.28
2022-09-17T01:24:45.424Z,1.75
2022-09-17T01:25:24.694Z,1.80
2022-09-17T01:26:17.388Z,2.00
2022-09-17T01:27:14.393Z,2.40
2022-09-17T01:28:20.207Z,2.17
2022-09-17T01:28:57.900Z,1.83
2022-09-17T01:29:43.532Z,1.85
2022-09-17T01:30:22.485Z,1.85
2022-09-17T01:31:23.834Z,2.05
2022-09-17T01:32:08.873Z,2.63
2022-09-17T01:32:45.908Z,2.58
2022-09-17T01:33:28.649Z,2.42
2022-09-17T01:34:10.665Z,2.20
2022-09-17T01:34:49.321Z,2.15
2022-09-17T01:35:26.035Z,2.40
2022-09-17T01:36:07.385Z,2.30
2022-09-17T01:36:49.989Z,2.60
2022-09-17T01:37:31.942Z,2.03
2022-09-17T01:38:11.658Z,2.22
2022-09-17T01:38:49.649Z,2.05
2022-09-17T01:39:32.734Z,1.83
2022-09-17T01:40:12.605Z,1.80
2022-09-17T01:40:50.974Z,2.20
2022-09-17T01:41:32.049Z,2.50
2022-09-17T01:42:12.755Z,2.05
2022-09-17T01:42:52.791Z,2.33
2022-09-17T01:43:30.235Z,2.22
2022-09-17T01:44:07.587Z,2.63
2022-09-17T01:44:46.844Z,2.00
2022-09-17T01:45:25.453Z,2.15
2022-09-17T01:46:04.568Z,2.05
2022-09-17T01:46:42.648Z,2.08
2022-09-17T01:47:21.031Z,2.25
2022-09-17T01:47:57.749Z,2.08
2022-09-17T01:48:33.665Z,2.40
2022-09-17T01:49:06.703Z,2.38
2022-09-17T01:49:40.610Z,2.70
2022-09-17T01:50:17.207Z,2.78
2022-09-17T01:50:54.289Z,1.92
2022-09-17T01:51:29.889Z,1.88
2022-09-17T01:52:03.857Z,2.30
2022-09-17T01:52:38.840Z,2.00
2022-09-17T01:53:11.700Z,1.80
2022-09-17T01:53:48.630Z,2.40
2022-09-17T01:54:25.083Z,2.15
2022-09-17T01:55:02.601Z,2.38
2022-09-17T01:55:38.900Z,2.10
2022-09-17T01:56:14.394Z,1.95
2022-09-17T01:56:52.167Z,2.65
2022-09-17T01:57:28.208Z,2.25
2022-09-17T01:58:05.760Z,2.08
2022-09-17T01:58:43.739Z,2.10
2022-09-17T01:59:20.897Z,2.20
2022-09-17T01:59:56.930Z,2.55
2022-09-17T02:00:30.381Z,2.30
2022-09-17T02:01:06.402Z,1.85
2022-09-17T02:01:42.082Z,3.65
2022-09-17T02:02:19.811Z,2.50
2022-09-17T02:02:58.022Z,1.90
2022-09-17T02:03:35.467Z,2.10
2022-09-17T02:04:12.535Z,2.75
2022-09-17T02:04:47.660Z,2.40
2022-09-17T02:05:22.661Z,2.60
2022-09-17T02:05:59.382Z,2.08
2022-09-17T02:06:36.400Z,2.60
2022-09-17T02:07:16.078Z,1.50
2022-09-17T02:07:52.721Z,2.65
2022-09-17T02:08:28.286Z,2.13
2022-09-17T02:09:05.981Z,2.60
2022-09-17T02:09:43.396Z,2.55
2022-09-17T02:10:20.039Z,2.63
2022-09-17T02:10:59.516Z,1.90
2022-09-17T02:11:36.517Z,2.42
2022-09-17T02:12:15.934Z,2.33
2022-09-17T02:12:54.156Z,2.15
2022-09-17T02:13:31.492Z,2.30
2022-09-17T02:14:07.427Z,2.00
2022-09-17T02:14:46.165Z,2.30
2022-09-17T02:15:23.720Z,2.38
2022-09-17T02:16:01.515Z,3.20
2022-09-17T02:16:37.206Z,2.28
2022-09-17T02:17:19.937Z,2.28
2022-09-17T02:17:56.253Z,2.97
2022-09-17T02:18:35.316Z,2.38
2022-09-17T02:19:10.556Z,2.35
2022-09-17T02:19:42.929Z,2.22
2022-09-17T02:20:20.850Z,2.83
2022-09-17T02:21:00.976Z,2.00
2022-09-17T02:21:40.839Z,2.30
2022-09-17T02:22:22.122Z,1.95
2022-09-17T02:22:57.796Z,2.15
2022-09-17T02:23:34.372Z,1.75
2022-09-17T02:24:12.593Z,2.22
2022-09-17T02:24:52.670Z,1.80
2022-09-17T02:25:32.193Z,1.38
2022-09-17T02:26:07.364Z,2.60
2022-09-17T02:26:45.112Z,2.30
2022-09-17T02:27:23.270Z,1.83
2022-09-17T02:28:03.425Z,2.00
2022-09-17T02:28:41.757Z,1.85
2022-09-17T02:29:23.313Z,1.90
2022-09-17T02:29:56.165Z,1.88
2022-09-17T02:30:27.942Z,2.10
2022-09-17T02:30:59.819Z,2.30
2022-09-17T02:31:33.017Z,2.00
2022-09-17T02:32:05.688Z,1.85
2022-09-17T02:32:38.933Z,1.80
2022-09-17T02:33:14.871Z,1.90
2022-09-17T02:33:50.228Z,2.00
2022-09-17T02:34:25.162Z,1.83
2022-09-17T02:34:58.004Z,1.92
2022-09-17T02:35:31.973Z,1.80
2022-09-17T02:36:04.129Z,1.60
2022-09-17T02:36:37.096Z,2.00
2022-09-17T02:37:09.200Z,2.03
2022-09-17T02:37:41.398Z,1.80
2022-09-17T02:38:14.296Z,1.40
2022-09-17T02:38:46.732Z,1.63
2022-09-17T02:39:18.505Z,1.70
2022-09-17T02:39:51.372Z,1.40
2022-09-17T02:40:25.795Z,1.63
2022-09-17T02:41:05.400Z,1.40
2022-09-17T02:41:47.016Z,2.13
2022-09-17T02:42:25.073Z,1.85
2022-09-17T02:43:11.861Z,2.25
2022-09-17T02:43:58.551Z,1.70
2022-09-17T02:44:38.824Z,1.80
2022-09-17T02:45:19.948Z,1.73
2022-09-17T02:46:01.357Z,1.92
2022-09-17T02:47:10.250Z,1.60
2022-09-17T02:48:01.189Z,1.48
2022-09-17T02:48:52.886Z,1.52
2022-09-17T02:49:43.607Z,1.45
2022-09-17T02:50:31.365Z,1.15
2022-09-17T02:51:16.615Z,1.30
2022-09-17T02:52:00.695Z,1.65
2022-09-17T02:52:47.164Z,1.38
2022-09-17T02:53:33.624Z,1.52
2022-09-17T02:54:16.385Z,1.73
2022-09-17T02:55:00.344Z,1.90
2022-09-17T02:55:38.131Z,1.38
2022-09-17T02:56:16.088Z,2.00
2022-09-17T02:56:56.029Z,1.80
2022-09-17T02:57:33.300Z,1.55
2022-09-17T02:58:14.387Z,1.40
2022-09-17T02:58:53.603Z,1.63
2022-09-17T02:59:30.365Z,1.70
2022-09-17T03:00:09.376Z,2.63
2022-09-17T03:00:42.729Z,2.00
2022-09-17T03:01:20.927Z,1.70
2022-09-17T03:02:00.037Z,1.45
2022-09-17T03:02:40.559Z,1.48
2022-09-17T03:03:21.335Z,1.70
2022-09-17T03:03:55.650Z,1.70
2022-09-17T03:04:29.404Z,1.38
2022-09-17T03:05:01.945Z,1.75
2022-09-17T03:05:37.339Z,1.63
2022-09-17T03:06:09.200Z,1.67
2022-09-17T03:06:41.428Z,2.40
2022-09-17T03:07:14.995Z,1.38
2022-09-17T03:07:46.805Z,1.30
2022-09-17T03:08:20.167Z,1.60
2022-09-17T03:08:53.307Z,1.38
2022-09-17T03:09:25.152Z,1.35
2022-09-17T03:09:56.909Z,1.50
2022-09-17T03:10:33.360Z,1.00
2022-09-17T03:11:05.893Z,1.88
2022-09-17T03:11:37.944Z,1.70
2022-09-17T03:12:11.847Z,1.27
2022-09-17T03:12:43.748Z,1.42
2022-09-17T03:13:15.679Z,1.40
2022-09-17T03:13:48.653Z,1.50
2022-09-17T03:14:20.687Z,1.67
2022-09-17T03:14:52.546Z,2.05
2022-09-17T03:15:25.299Z,1.80
2022-09-17T03:15:57.413Z,1.30
2022-09-17T03:16:29.300Z,1.67
2022-09-17T03:17:02.058Z,1.50
2022-09-17T03:17:34.556Z,1.90
2022-09-17T03:18:06.910Z,1.67
2022-09-17T03:18:43.926Z,1.50
2022-09-17T03:19:15.699Z,1.40
2022-09-17T03:19:47.459Z,1.23
2022-09-17T03:20:20.236Z,1.05
2022-09-17T03:20:52.044Z,1.30
2022-09-17T03:21:23.799Z,1.60
2022-09-17T03:21:56.537Z,1.27
2022-09-17T03:22:28.357Z,1.40
2022-09-17T03:23:00.108Z,1.58
2022-09-17T03:23:32.772Z,1.13
2022-09-17T03:24:05.784Z,1.52
2022-09-17T03:24:37.572Z,1.33
2022-09-17T03:25:09.933Z,1.42
2022-09-17T03:25:42.828Z,1.10
2022-09-17T03:26:14.649Z,1.45
2022-09-17T03:26:47.378Z,1.35
2022-09-17T03:27:20.169Z,1.40
2022-09-17T03:27:52.364Z,1.33
2022-09-17T03:28:26.357Z,1.50
2022-09-17T03:28:59.542Z,1.50
2022-09-17T03:29:31.421Z,1.33
2022-09-17T03:30:03.625Z,1.25
2022-09-17T03:30:36.378Z,1.08
2022-09-17T03:31:08.216Z,1.30
2022-09-17T03:31:40.081Z,1.42
2022-09-17T03:32:12.894Z,1.25
2022-09-17T03:32:45.191Z,0.82
2022-09-17T03:33:17.383Z,1.83
2022-09-17T03:33:51.444Z,1.40
2022-09-17T03:34:23.782Z,1.25
2022-09-17T03:34:55.565Z,1.15
2022-09-17T03:35:28.287Z,1.30
2022-09-17T03:36:00.231Z,1.40
2022-09-17T03:36:33.025Z,1.15
2022-09-17T03:37:04.990Z,1.73
2022-09-17T03:37:36.846Z,1.70
2022-09-17T03:38:08.591Z,1.20
2022-09-17T03:38:41.365Z,1.17
2022-09-17T03:39:13.241Z,1.55
2022-09-17T03:39:45.073Z,1.10
2022-09-17T03:40:17.968Z,1.83
2022-09-17T03:40:58.428Z,1.48
2022-09-17T03:41:30.227Z,1.60
2022-09-17T03:42:06.443Z,1.45
2022-09-17T03:42:38.329Z,1.50
2022-09-17T03:43:10.451Z,1.60
2022-09-17T03:43:42.320Z,1.45
2022-09-17T03:44:15.352Z,1.55
2022-09-17T03:44:47.200Z,1.55
2022-09-17T03:45:18.989Z,1.95
2022-09-17T03:45:51.769Z,1.05
2022-09-17T03:46:23.633Z,1.35
2022-09-17T03:46:56.596Z,1.42
2022-09-17T03:47:28.389Z,1.40
2022-09-17T03:48:00.225Z,1.05
2022-09-17T03:48:36.895Z,1.50
2022-09-17T03:49:10.009Z,1.30
2022-09-17T03:49:42.731Z,1.20
2022-09-17T03:50:14.570Z,1.40
2022-09-17T03:50:46.363Z,1.38
2022-09-17T03:51:18.251Z,1.30
2022-09-17T03:51:51.252Z,1.48
2022-09-17T03:52:23.050Z,1.35
2022-09-17T03:52:54.830Z,1.35
2022-09-17T03:53:27.607Z,1.48
2022-09-17T03:53:59.382Z,1.30
2022-09-17T03:54:32.236Z,1.58
2022-09-17T03:55:05.574Z,1.50
2022-09-17T03:55:38.204Z,1.70
2022-09-17T03:56:10.070Z,1.90
2022-09-17T03:56:42.880Z,1.17
2022-09-17T03:57:14.638Z,1.52
2022-09-17T03:57:46.463Z,1.40
2022-09-17T03:58:19.194Z,1.40
2022-09-17T03:58:51.247Z,1.40
2022-09-17T03:59:23.174Z,1.10
2022-09-17T03:59:55.933Z,1.70
2022-09-17T04:00:28.056Z,1.75
2022-09-17T04:00:59.986Z,1.60
2022-09-17T04:01:32.879Z,1.60
2022-09-17T04:02:05.031Z,1.52
2022-09-17T04:02:37.201Z,1.40
2022-09-17T04:03:10.062Z,1.50
2022-09-17T04:03:42.061Z,2.00
2022-09-17T04:04:15.207Z,1.42
2022-09-17T04:04:48.140Z,1.70
2022-09-17T04:05:19.963Z,1.67
2022-09-17T04:05:51.921Z,1.40
2022-09-17T04:06:36.724Z,1.60
2022-09-17T04:07:08.472Z,1.80
2022-09-17T04:07:40.817Z,2.05
2022-09-17T04:08:13.738Z,1.98
2022-09-17T04:08:45.588Z,1.50
2022-09-17T04:09:17.369Z,1.50
2022-09-17T04:09:50.093Z,1.38
2022-09-17T04:10:22.950Z,1.70
2022-09-17T04:10:55.057Z,1.45
2022-09-17T04:11:27.957Z,1.20
2022-09-17T04:11:59.781Z,1.65
2022-09-17T04:12:31.555Z,2.20
2022-09-17T04:13:03.413Z,1.90
2022-09-17T04:13:36.170Z,1.80
2022-09-17T04:14:07.963Z,1.52
2022-09-17T04:14:39.745Z,1.30
2022-09-17T04:15:12.757Z,1.60
2022-09-17T04:15:45.536Z,1.60
2022-09-17T04:16:18.411Z,1.20
2022-09-17T04:16:50.197Z,1.63
2022-09-17T04:17:22.017Z,1.90
2022-09-17T04:17:55.757Z,1.60
2022-09-17T04:18:28.562Z,2.03
2022-09-17T04:19:00.541Z,1.50
2022-09-17T04:19:33.736Z,1.45
2022-09-17T04:20:07.281Z,1.60
2022-09-17T04:20:39.315Z,1.83
2022-09-17T04:21:11.119Z,1.73
2022-09-17T04:21:43.973Z,1.88
2022-09-17T04:22:15.811Z,1.48
2022-09-17T04:22:47.564Z,1.60
2022-09-17T04:23:20.507Z,1.70
2022-09-17T04:23:52.318Z,1.27
2022-09-17T04:24:24.085Z,1.60
2022-09-17T04:24:56.822Z,1.40
2022-09-17T04:25:28.645Z,1.80
2022-09-17T04:26:00.444Z,1.90
2022-09-17T04:26:33.214Z,1.50
2022-09-17T04:27:05.069Z,1.50
2022-09-17T04:27:36.884Z,1.38
2022-09-17T04:28:08.666Z,1.60
2022-09-17T04:28:41.673Z,1.70
2022-09-17T04:29:13.488Z,1.83
2022-09-17T04:29:45.249Z,1.40
2022-09-17T04:30:17.939Z,1.50
2022-09-17T04:30:51.067Z,1.80
2022-09-17T04:31:24.862Z,2.20
2022-09-17T04:31:56.666Z,1.58
2022-09-17T04:32:29.399Z,1.92
2022-09-17T04:33:01.169Z,2.20
2022-09-17T04:33:32.963Z,1.98
2022-09-17T04:34:05.860Z,1.90
2022-09-17T04:34:38.977Z,2.30
2022-09-17T04:35:10.884Z,1.52
2022-09-17T04:35:43.631Z,1.60
2022-09-17T04:36:15.426Z,1.73
2022-09-17T04:36:47.195Z,1.33
2022-09-17T04:37:20.169Z,1.65
2022-09-17T04:37:55.632Z,2.30
2022-09-17T04:38:27.549Z,1.42
2022-09-17T04:39:00.391Z,2.28
2022-09-17T04:39:32.150Z,1.80
2022-09-17T04:40:07.981Z,1.90
2022-09-17T04:40:42.236Z,1.85
2022-09-17T04:41:14.057Z,2.05
2022-09-17T04:41:45.921Z,1.90
2022-09-17T04:42:19.219Z,1.92
2022-09-17T04:42:53.090Z,2.42
2022-09-17T04:43:25.017Z,1.65
2022-09-17T04:43:57.729Z,2.17
2022-09-17T04:44:29.548Z,1.95
2022-09-17T04:45:01.332Z,2.10
2022-09-17T04:45:34.053Z,2.13
2022-09-17T04:46:06.721Z,1.70
2022-09-17T04:46:38.561Z,1.80
2022-09-17T04:47:11.344Z,2.15
2022-09-17T04:47:43.129Z,2.42
2022-09-17T04:48:15.021Z,1.95
2022-09-17T04:48:47.754Z,1.80
2022-09-17T04:49:19.535Z,2.25
2022-09-17T04:49:52.680Z,2.17
2022-09-17T04:50:25.450Z,1.52
2022-09-17T04:50:57.311Z,1.90
2022-09-17T04:51:29.144Z,1.80
2022-09-17T04:52:02.095Z,2.22
2022-09-17T04:52:33.864Z,2.10
2022-09-17T04:53:05.613Z,1.90
2022-09-17T04:53:39.058Z,2.10
2022-09-17T04:54:10.844Z,2.33
2022-09-17T04:54:42.621Z,1.92
2022-09-17T04:55:15.934Z,2.25
2022-09-17T04:55:47.703Z,1.80
2022-09-17T04:56:20.366Z,2.00
2022-09-17T04:56:53.088Z,2.15
2022-09-17T04:57:26.115Z,2.45
2022-09-17T04:57:57.878Z,1.95
2022-09-17T04:58:31.159Z,1.80
2022-09-17T04:59:02.952Z,2.30
2022-09-17T04:59:34.721Z,1.90
2022-09-17T05:00:09.912Z,2.00
2022-09-17T05:00:42.331Z,3.65
2022-09-17T05:01:18.547Z,1.90
2022-09-17T05:01:50.482Z,2.42
2022-09-17T05:02:22.363Z,2.30
2022-09-17T05:02:56.152Z,2.17
2022-09-17T05:03:27.943Z,2.08
2022-09-17T05:03:59.794Z,1.90
2022-09-17T05:04:32.577Z,1.75
2022-09-17T05:05:06.152Z,1.85
2022-09-17T05:05:37.927Z,2.20
2022-09-17T05:06:10.675Z,1.85
2022-09-17T05:06:42.500Z,1.70
2022-09-17T05:07:14.285Z,1.90
2022-09-17T05:07:47.311Z,1.98
2022-09-17T05:08:19.082Z,2.33
2022-09-17T05:08:50.837Z,2.63
2022-09-17T05:09:23.561Z,1.90
2022-09-17T05:09:55.353Z,2.20
2022-09-17T05:10:27.200Z,2.35
2022-09-17T05:10:59.938Z,1.95
2022-09-17T05:11:31.729Z,1.83
2022-09-17T05:12:03.751Z,1.95
2022-09-17T05:12:36.617Z,2.15
2022-09-17T05:13:08.393Z,2.20
2022-09-17T05:13:40.174Z,2.35
2022-09-17T05:14:13.992Z,2.13
2022-09-17T05:14:45.829Z,2.05
2022-09-17T05:15:18.007Z,2.00
2022-09-17T05:15:49.955Z,2.42
2022-09-17T05:16:22.836Z,2.10
2022-09-17T05:16:54.641Z,2.22
2022-09-17T05:17:26.423Z,2.05
2022-09-17T05:17:59.126Z,2.00
2022-09-17T05:18:31.427Z,1.65
2022-09-17T05:19:04.043Z,2.00
2022-09-17T05:19:36.778Z,1.88
2022-09-17T05:20:10.313Z,1.90
2022-09-17T05:20:43.038Z,1.75
2022-09-17T05:21:16.048Z,1.90
2022-09-17T05:21:47.813Z,2.63
2022-09-17T05:22:21.495Z,2.17
2022-09-17T05:22:54.470Z,2.38
2022-09-17T05:23:26.462Z,2.40
2022-09-17T05:23:58.348Z,2.03
2022-09-17T05:24:31.186Z,2.40
2022-09-17T05:25:03.041Z,1.95
2022-09-17T05:25:34.841Z,2.05
2022-09-17T05:26:07.608Z,2.13
2022-09-17T05:26:39.410Z,1.75
2022-09-17T05:27:11.305Z,1.90
2022-09-17T05:27:43.385Z,1.70
2022-09-17T05:28:16.100Z,1.63
2022-09-17T05:28:47.850Z,1.77
2022-09-17T05:29:19.637Z,2.08
2022-09-17T05:29:52.353Z,1.88
2022-09-17T05:30:24.153Z,2.38
2022-09-17T05:30:59.145Z,1.77
2022-09-17T05:31:32.008Z,2.58
2022-09-17T05:32:04.182Z,2.20
2022-09-17T05:32:36.409Z,2.10
2022-09-17T05:33:09.149Z,1.70
2022-09-17T05:33:40.916Z,1.77
2022-09-17T05:34:12.869Z,2.38
2022-09-17T05:34:45.680Z,1.92
2022-09-17T05:35:18.969Z,2.28
2022-09-17T05:35:50.747Z,1.80
2022-09-17T05:36:23.485Z,2.30
2022-09-17T05:36:55.288Z,1.55
2022-09-17T05:37:27.101Z,1.70
2022-09-17T05:38:01.505Z,1.90
2022-09-17T05:38:33.296Z,1.70
2022-09-17T05:39:05.084Z,1.90
2022-09-17T05:39:36.865Z,2.00
2022-09-17T05:40:10.858Z,1.80
2022-09-17T05:40:42.671Z,1.60
2022-09-17T05:41:14.412Z,2.10
2022-09-17T05:41:47.151Z,1.67
2022-09-17T05:42:18.908Z,2.15
2022-09-17T05:42:50.697Z,1.70
2022-09-17T05:43:23.850Z,1.73
2022-09-17T05:43:55.634Z,1.95
2022-09-17T05:44:27.454Z,1.80
2022-09-17T05:45:00.205Z,2.22
2022-09-17T05:45:33.402Z,1.80
2022-09-17T05:46:06.981Z,1.90
2022-09-17T05:46:39.010Z,2.00
2022-09-17T05:47:10.809Z,1.92
2022-09-17T05:47:43.529Z,1.60
2022-09-17T05:48:15.932Z,1.40
2022-09-17T05:48:47.682Z,1.90
2022-09-17T05:49:20.833Z,1.92
2022-09-17T05:49:52.597Z,2.50
2022-09-17T05:50:26.868Z,2.50
2022-09-17T05:50:59.616Z,2.17
2022-09-17T05:51:31.740Z,2.10
2022-09-17T05:52:03.820Z,1.90
2022-09-17T05:52:36.573Z,2.00
2022-09-17T05:53:11.578Z,1.88
2022-09-17T05:53:43.379Z,1.90
2022-09-17T05:54:16.122Z,1.40
2022-09-17T05:54:48.496Z,2.92
2022-09-17T05:55:22.242Z,2.35
2022-09-17T05:55:57.831Z,1.80
2022-09-17T05:56:29.606Z,1.52
2022-09-17T05:57:01.738Z,1.95
2022-09-17T05:57:34.499Z,2.55
2022-09-17T05:58:11.167Z,1.77
2022-09-17T05:58:42.941Z,1.85
2022-09-17T05:59:15.781Z,1.85
2022-09-17T05:59:47.573Z,1.92
2022-09-17T06:00:19.684Z,2.15
2022-09-17T06:00:52.507Z,2.00
2022-09-17T06:01:24.491Z,2.55
2022-09-17T06:01:56.395Z,1.55
2022-09-17T06:02:29.261Z,1.95
2022-09-17T06:03:01.105Z,1.70
2022-09-17T06:03:33.047Z,1.38
2022-09-17T06:04:05.857Z,1.33
2022-09-17T06:04:37.605Z,2.00
2022-09-17T06:05:09.698Z,2.22
2022-09-17T06:05:43.981Z,2.13
2022-09-17T06:06:15.822Z,1.50
2022-09-17T06:06:47.573Z,1.60
2022-09-17T06:07:20.317Z,1.95
2022-09-17T06:07:52.109Z,1.42
2022-09-17T06:08:24.804Z,2.10
2022-09-17T06:08:57.636Z,2.08
2022-09-17T06:09:29.433Z,1.90
2022-09-17T06:10:01.240Z,1.75
2022-09-17T06:10:36.475Z,1.55
2022-09-17T06:11:08.892Z,1.45
2022-09-17T06:11:40.649Z,2.58
2022-09-17T06:12:13.377Z,2.15
2022-09-17T06:12:45.165Z,1.63
2022-09-17T06:13:17.289Z,1.85
2022-09-17T06:13:53.390Z,1.73
2022-09-17T06:14:25.195Z,2.00
2022-09-17T06:14:56.972Z,1.70
2022-09-17T06:15:30.202Z,2.05
2022-09-17T06:16:03.387Z,1.90
2022-09-17T06:16:35.334Z,1.65
2022-09-17T06:17:08.305Z,1.92
2022-09-17T06:17:41.031Z,2.00
2022-09-17T06:18:12.777Z,1.70
2022-09-17T06:18:45.500Z,1.52
2022-09-17T06:19:17.253Z,1.95
2022-09-17T06:19:49.124Z,1.58
2022-09-17T06:20:22.550Z,1.75
2022-09-17T06:20:56.984Z,1.58
2022-09-17T06:21:28.754Z,1.88
2022-09-17T06:22:01.718Z,1.60
2022-09-17T06:22:33.766Z,1.90
2022-09-17T06:23:05.581Z,1.88
2022-09-17T06:23:38.320Z,1.50
2022-09-17T06:24:10.471Z,1.85
2022-09-17T06:24:42.245Z,2.25
2022-09-17T06:25:15.341Z,2.20
2022-09-17T06:25:52.481Z,2.40
2022-09-17T06:26:25.426Z,2.70
2022-09-17T06:26:57.168Z,1.70
2022-09-17T06:27:31.265Z,1.83
2022-09-17T06:28:04.677Z,2.03
2022-09-17T06:28:41.500Z,2.70
2022-09-17T06:29:15.058Z,2.20
2022-09-17T06:29:47.845Z,1.58
2022-09-17T06:30:19.680Z,2.10
2022-09-17T06:30:54.244Z,2.22
2022-09-17T06:31:27.071Z,1.52
2022-09-17T06:31:59.162Z,1.98
2022-09-17T06:32:30.953Z,2.22
2022-09-17T06:33:03.670Z,2.92
2022-09-17T06:33:36.422Z,2.25
2022-09-17T06:34:08.197Z,1.92
2022-09-17T06:34:41.517Z,1.80
2022-09-17T06:35:13.311Z,1.80
2022-09-17T06:35:45.082Z,1.92
2022-09-17T06:36:19.173Z,1.73
2022-09-17T06:36:50.953Z,2.30
2022-09-17T06:37:27.688Z,1.75
2022-09-17T06:38:00.396Z,1.80
2022-09-17T06:38:33.678Z,1.73
2022-09-17T06:39:05.469Z,1.90
2022-09-17T06:39:38.254Z,1.77
2022-09-17T06:40:10.714Z,2.20
2022-09-17T06:40:43.565Z,2.10
2022-09-17T06:41:16.797Z,2.10
2022-09-17T06:41:48.593Z,2.10
2022-09-17T06:42:21.429Z,2.10
2022-09-17T06:42:57.288Z,1.50
2022-09-17T06:43:29.314Z,1.63
2022-09-17T06:44:02.401Z,1.60
2022-09-17T06:44:34.193Z,3.15
2022-09-17T06:45:11.103Z,1.90
2022-09-17T06:45:50.974Z,1.90
2022-09-17T06:46:24.049Z,2.05
2022-09-17T06:46:56.575Z,2.20
2022-09-17T06:47:28.396Z,2.47
2022-09-17T06:48:06.003Z,2.05
2022-09-17T06:48:38.692Z,2.28
2022-09-17T06:49:11.571Z,2.05
2022-09-17T06:49:44.298Z,1.85
2022-09-17T06:50:16.169Z,1.55
2022-09-17T06:50:48.373Z,1.98
2022-09-17T06:51:23.401Z,1.80
2022-09-17T06:51:55.161Z,2.47
2022-09-17T06:52:27.049Z,2.08
2022-09-17T06:52:59.837Z,2.05
2022-09-17T06:53:32.013Z,1.67
2022-09-17T06:54:04.537Z,2.25
2022-09-17T06:54:37.370Z,2.00
2022-09-17T06:55:09.468Z,1.50
2022-09-17T06:55:41.916Z,2.00
2022-09-17T06:56:14.716Z,2.00
2022-09-17T06:56:47.348Z,1.92
2022-09-17T06:57:19.161Z,1.88
2022-09-17T06:57:51.894Z,1.85
2022-09-17T06:58:23.715Z,1.98
2022-09-17T06:58:55.569Z,1.88
2022-09-17T06:59:28.457Z,1.67
2022-09-17T07:00:00.227Z,1.88
2022-09-17T07:00:32.171Z,1.90
2022-09-17T07:01:06.325Z,2.22
2022-09-17T07:01:38.247Z,2.63
2022-09-17T07:02:10.133Z,2.00
2022-09-17T07:02:42.949Z,1.75
2022-09-17T07:03:14.759Z,1.95
2022-09-17T07:03:46.569Z,1.80
2022-09-17T07:04:19.376Z,1.75
2022-09-17T07:04:51.157Z,1.85
2022-09-17T07:05:23.036Z,1.52
2022-09-17T07:05:55.771Z,1.92
2022-09-17T07:06:28.935Z,2.60
2022-09-17T07:07:00.756Z,1.55
2022-09-17T07:07:34.913Z,1.80
2022-09-17T07:08:06.721Z,2.20
2022-09-17T07:08:39.861Z,1.73
2022-09-17T07:09:11.784Z,1.73
2022-09-17T07:09:44.528Z,2.10
2022-09-17T07:10:16.408Z,2.08
2022-09-17T07:10:48.307Z,1.70
2022-09-17T07:11:21.061Z,2.72
2022-09-17T07:11:52.839Z,2.17
2022-09-17T07:12:24.661Z,2.10
2022-09-17T07:12:56.534Z,1.85
2022-09-17T07:13:29.274Z,2.58
2022-09-17T07:14:01.033Z,2.30
2022-09-17T07:14:32.820Z,1.55
2022-09-17T07:15:06.056Z,1.80
2022-09-17T07:15:37.826Z,2.10
2022-09-17T07:16:10.464Z,1.90
2022-09-17T07:16:43.260Z,1.65
2022-09-17T07:17:15.636Z,2.40
2022-09-17T07:17:47.409Z,2.08
2022-09-17T07:18:19.171Z,2.35
2022-09-17T07:18:51.914Z,1.50
2022-09-17T07:19:23.744Z,1.45
2022-09-17T07:19:55.553Z,2.03
2022-09-17T07:20:28.304Z,2.17
2022-09-17T07:21:01.746Z,1.90
2022-09-17T07:21:35.813Z,2.50
2022-09-17T07:22:08.238Z,1.67
2022-09-17T07:22:40.277Z,2.03
2022-09-17T07:23:12.999Z,1.65
2022-09-17T07:23:45.757Z,2.35
2022-09-17T07:24:17.575Z,2.50
2022-09-17T07:24:50.353Z,2.28
2022-09-17T07:25:22.160Z,1.60
2022-09-17T07:25:54.901Z,2.50
2022-09-17T07:26:27.656Z,1.85
2022-09-17T07:26:59.658Z,1.77
2022-09-17T07:27:32.066Z,1.63
2022-09-17T07:28:05.242Z,2.03
2022-09-17T07:28:39.440Z,1.70
2022-09-17T07:29:12.210Z,1.30
2022-09-17T07:29:44.965Z,1.95
2022-09-17T07:30:16.845Z,1.50
2022-09-17T07:30:48.932Z,1.83
2022-09-17T07:31:21.740Z,1.75
2022-09-17T07:31:53.618Z,1.60
2022-09-17T07:32:25.592Z,3.00
2022-09-17T07:33:02.182Z,1.88
2022-09-17T07:33:35.653Z,1.55
2022-09-17T07:34:08.430Z,2.03
2022-09-17T07:34:40.210Z,2.15
2022-09-17T07:35:12.389Z,1.83
2022-09-17T07:35:52.943Z,1.70
2022-09-17T07:36:24.828Z,1.42
2022-09-17T07:36:59.156Z,2.05
2022-09-17T07:37:30.961Z,1.50
2022-09-17T07:38:02.747Z,1.60
2022-09-17T07:38:35.786Z,2.13